Flight Track Log - Related Links

Times and Time Zones

All times are in EST time to prevent confusion due to time zone crossing. See the EJA829P flight status page for this flight to view local times or setup timezone preferences in your user account.

Time Position Orientation Groundspeed Altitude Reporting Facility
EST Latitude Longitude Course Direction KTS MPH feet Rate Location/Type
Thu 09:46:49 AM 37.4722 -77.3450 262° West 183 211 2,300  Level Washington Center
Thu 09:47:49 AM 37.4381 -77.3967 230° Southwest 196 226 5,100 3,305 Climbing Washington Center
Thu 09:48:47 AM 37.4264 -77.4825 260° West 218 251 8,800 1,983 Climbing Washington Center
Thu 09:49:47 AM 37.4144 -77.5739 261° West 244 281 9,000 1,339 Climbing Washington Center
Thu 09:50:48 AM 37.4022 -77.6703 261° West 270 311 11,500 2,951 Climbing Washington Center
Thu 09:51:49 AM 37.3881 -77.7692 260° West 290 334 15,000 3,124 Climbing Washington Center
Thu 09:52:00 AM 37.2768 -77.9486 262° West  Level Estimated
Thu 09:52:49 AM 37.3736 -77.8786 261° West 303 349 17,800  Level Washington Center
Thu 09:53:47 AM 37.3544 -77.9981 259° West 324 373 19,900 1,119 Climbing Washington Center
Thu 09:54:47 AM 37.3292 -78.1150 255° West 344 396 20,000 50 Climbing Washington Center
Thu 09:55:47 AM 37.3036 -78.2317 255° West 355 409 20,000 1,339 Level Washington Center
Thu 09:56:48 AM 37.2844 -78.3483 258° West 355 409 22,700 2,852 Climbing Washington Center
Thu 09:57:49 AM 37.2794 -78.4631 267° West 345 397 25,800 2,168 Climbing Washington Center
Thu 09:58:47 AM 37.2764 -78.5883 268° West 345 397 27,000 1,311 Climbing Washington Center
Thu 09:59:48 AM 37.2711 -78.7186 267° West 368 423 28,400 1,623 Climbing Washington Center
Thu 10:00:49 AM 37.2678 -78.8411 268° West 385 443 30,300 1,934 Climbing Washington Center
Thu 10:01:49 AM 37.2642 -78.9767 268° West 385 443 32,300 2,000 Climbing Washington Center
Thu 10:02:49 AM 37.2583 -79.1069 267° West 385 443 34,300 2,034 Climbing Washington Center
Thu 10:03:47 AM 37.2522 -79.2344 267° West 380 437 36,300 1,881 Climbing Washington Center
Thu 10:04:47 AM 37.2381 -79.3589 262° West 375 432 38,000 843 Climbing Washington Center
Thu 10:05:48 AM 37.2231 -79.5042 263° West 375 432 38,000  Level Washington Center
Thu 10:06:49 AM 37.2081 -79.6392 262° West 390 449 38,000  Level Washington Center
Thu 10:07:49 AM 37.1931 -79.7739 262° West 396 456 38,000  Level Washington Center
Thu 10:08:47 AM 37.1778 -79.9086 262° West 396 456 38,000  Level Washington Center
Thu 10:09:48 AM 37.1644 -80.0433 263° West 396 456 38,000  Level Washington Center
Thu 10:11:17 AM 37.1383 -80.2481 261° West 391 450 38,000  Level Atlanta Center
Thu 10:12:17 AM 37.1236 -80.3842 262° West 391 450 38,000  Level Atlanta Center
Thu 10:13:17 AM 37.1067 -80.5178 261° West 391 450 38,000  Level Atlanta Center
Thu 10:14:18 AM 37.0939 -80.6536 263° West 391 450 38,000  Level Atlanta Center
Thu 10:15:17 AM 37.0658 -80.7692 253° West 391 450 38,000  Level Atlanta Center
Thu 10:16:17 AM 37.0211 -80.8933 246° West 391 450 38,000  Level Atlanta Center
Thu 10:17:18 AM 36.9761 -81.0172 246° West 391 450 38,000  Level Atlanta Center
Thu 10:18:18 AM 36.9333 -81.1383 246° West 391 450 38,000  Level Atlanta Center
Thu 10:19:17 AM 36.8842 -81.2750 246° West 391 450 38,000  Level Atlanta Center
Thu 10:20:18 AM 36.8389 -81.3958 245° Southwest 391 450 38,000  Level Atlanta Center
Thu 10:21:18 AM 36.7956 -81.5192 246° West 386 444 38,000  Level Atlanta Center
Thu 10:22:18 AM 36.7583 -81.6292 247° West 386 444 38,000  Level Atlanta Center
Thu 10:23:17 AM 36.7147 -81.7522 246° West 386 444 38,000  Level Atlanta Center
Thu 10:24:17 AM 36.6689 -81.8725 245° Southwest 386 444 38,000  Level Atlanta Center
Thu 10:25:17 AM 36.6253 -81.9928 246° West 386 444 38,000  Level Atlanta Center
Thu 10:26:18 AM 36.5792 -82.1153 245° Southwest 386 444 38,000  Level Atlanta Center
Thu 10:27:18 AM 36.5331 -82.2456 246° West 386 444 38,000  Level Atlanta Center
Thu 10:28:17 AM 36.4869 -82.3656 244° Southwest 381 438 38,000  Level Atlanta Center
Thu 10:29:18 AM 36.4425 -82.4800 244° Southwest 381 438 38,000  Level Atlanta Center
Thu 10:30:17 AM 36.3981 -82.5994 245° Southwest 381 438 38,000  Level Atlanta Center
Thu 10:31:17 AM 36.3556 -82.7136 245° Southwest 381 438 38,000  Level Atlanta Center
Thu 10:32:17 AM 36.3108 -82.8303 245° Southwest 381 438 38,000  Level Atlanta Center
Thu 10:33:17 AM 36.2683 -82.9469 246° West 376 433 38,000  Level Atlanta Center
Thu 10:34:17 AM 36.2233 -83.0608 244° Southwest 376 433 38,000  Level Atlanta Center
Thu 10:35:18 AM 36.1803 -83.1769 245° Southwest 370 426 38,000  Level Atlanta Center
Thu 10:36:18 AM 36.1247 -83.2803 236° Southwest 370 426 38,000  Level Atlanta Center
Thu 10:37:17 AM 36.0439 -83.3608 219° Southwest 370 426 38,000  Level Atlanta Center
Thu 10:38:18 AM 35.9631 -83.4461 221° Southwest 379 436 38,000  Level Atlanta Center
Thu 10:39:17 AM 35.8989 -83.5467 232° Southwest 379 436 38,000  Level Atlanta Center
Thu 10:40:18 AM 35.8344 -83.6494 232° Southwest 379 436 38,000  Level Atlanta Center
Thu 10:41:18 AM 35.7722 -83.7469 232° Southwest 379 436 38,000  Level Atlanta Center
Thu 10:43:17 AM 35.6411 -83.9519 232° Southwest 379 436 38,000  Level Atlanta Center
Thu 10:44:18 AM 35.5764 -84.0542 232° Southwest 379 436 38,000  Level Atlanta Center
Thu 10:45:17 AM 35.5117 -84.1511 231° Southwest 379 436 38,000  Level Atlanta Center
Thu 10:46:17 AM 35.4469 -84.2528 232° Southwest 379 436 38,000  Level Atlanta Center
Thu 10:47:17 AM 35.3842 -84.3494 231° Southwest 374 430 38,000  Level Atlanta Center
Thu 10:48:17 AM 35.3192 -84.4511 232° Southwest 374 430 38,000  Level Atlanta Center
Thu 10:49:18 AM 35.2542 -84.5500 231° Southwest 374 430 38,000  Level Atlanta Center
Thu 10:50:18 AM 35.1911 -84.6461 231° Southwest 374 430 38,000  Level Atlanta Center
Thu 10:51:18 AM 35.1278 -84.7447 232° Southwest 374 430 38,000  Level Atlanta Center
Thu 10:52:17 AM 35.0772 -84.8231 232° Southwest 374 430 38,000  Level Atlanta Center
Thu 10:53:17 AM 35.0078 -84.9289 231° Southwest 374 430 38,000 -350 Level Atlanta Center
Thu 10:54:17 AM 34.9444 -85.0219 230° Southwest 374 430 37,300 -1,100 Descending Atlanta Center
Thu 10:55:17 AM 34.8789 -85.1225 232° Southwest 374 430 35,800 -1,150 Descending Atlanta Center
Thu 10:56:17 AM 34.8156 -85.2203 232° Southwest 374 430 35,000 -397 Descending Atlanta Center
Thu 10:57:18 AM 34.7478 -85.3206 231° Southwest 374 430 35,000 -550 Level Atlanta Center
Thu 10:58:17 AM 34.6778 -85.4153 228° Southwest 374 430 33,900 -1,450 Descending Atlanta Center
Thu 10:59:18 AM 34.6058 -85.5075 227° Southwest 379 436 32,100 -2,033 Descending Atlanta Center
Thu 11:00:18 AM 34.5233 -85.5894 219° Southwest 379 436 29,800 -2,370 Descending Atlanta Center
Thu 11:01:17 AM 34.4306 -85.6633 213° Southwest 390 449 27,400 -2,550 Descending Atlanta Center
Thu 11:02:18 AM 34.3478 -85.7647 225° Southwest 396 456 24,700 -2,300 Descending Atlanta Center
Thu 11:03:17 AM 34.2842 -85.8439 226° Southwest 381 438 22,800 -2,118 Descending Atlanta Center
Thu 11:04:17 AM 34.2158 -85.9378 229° Southwest 381 438 20,500 -2,167 Descending Atlanta Center
Thu 11:06:17 AM 34.0836 -86.1131 228° Southwest 360 414 16,300 -2,161 Descending Atlanta Center
Thu 11:07:23 AM 34.0067 -86.2164 228° Southwest 342 394 13,800 -2,242 Descending Atlanta Center
Thu 11:07:48 AM 33.9769 -86.2533 226° Southwest 339 390 12,900 -1,778 Descending Atlanta Center
Thu 11:08:17 AM 33.9553 -86.2828 228° Southwest 353 406 12,200 -1,583 Descending Atlanta Center
Thu 11:09:00 AM 33.9019 -86.3514 227° Southwest 327 376 11,000 -1,200 Descending Atlanta Center
Thu 11:09:17 AM 33.8933 -86.3611 223° Southwest 348 400 11,000 -492 Level Atlanta Center
Thu 11:10:01 AM 33.8400 -86.4272 226° Southwest 315 362 10,500 -800 Descending Atlanta Center
Thu 11:10:17 AM 33.8317 -86.4319 205° Southwest 330 380 10,200 -1,700 Descending Atlanta Center
Thu 11:11:01 AM 33.7906 -86.4958 232° Southwest 267 307 8,800 -1,574 Descending Atlanta Center
Thu 11:11:18 AM 33.7842 -86.5033 224° Southwest 304 350 8,600 -1,527 Descending Atlanta Center
Thu 11:11:56 AM 33.7539 -86.5647 239° Southwest 263 303 7,400 -1,600 Descending Atlanta Center
Thu 11:12:18 AM 33.7472 -86.5797 242° Southwest 285 328 7,000 -1,612 Descending Atlanta Center
Thu 11:13:03 AM 33.7125 -86.6433 237° Southwest 257 296 5,600 -1,627 Descending Atlanta Center
Thu 11:13:17 AM 33.7081 -86.6508 235° Southwest 272 313 5,400 -1,556 Descending Atlanta Center
Thu 11:13:57 AM 33.6778 -86.7072 237° Southwest 256 295 4,200 -1,574 Descending Atlanta Center
Thu 11:14:18 AM 33.6711 -86.7222 242° Southwest 266 306 3,800 -1,180 Descending Atlanta Center
Thu 11:14:58 AM 33.6406 -86.7811 238° Southwest 252 290 3,000 -814 Descending Atlanta Center
Thu 11:15:17 AM 33.6342 -86.7933 238° Southwest 266 306 3,000 -627 Level Atlanta Center
Thu 11:16:05 AM 33.5892 -86.8442 223° Southwest 212 244 2,300 -700 Descending Atlanta Center
Thu 11:16:17 AM 33.5892 -86.8417 90° East 245 282 2,300 -329 Level Atlanta Center
Thu 11:17:18 AM 33.5542 -86.8206 153° Southeast 167 192 1,900 -678 Descending Atlanta Center
Thu 11:18:12 AM 33.5444 -86.7906 111° Southeast 116 133 1,000 -1,000 Descending Atlanta Center
Thu 11:20:00 AM 33.5500 -86.7500 220° Southwest  Level FlightAware Approximate

Login

Don't have an account? Register now (free) for customized features, flight alerts, and more!